Time;durP1;ratioP1;P1;durP2;ratioP2;P2;SDS_P1;SDS_P2;PMS_P1;PMS_P2;Temp;Humidity;BMP_temperature;BMP_pressure;BME280_temperature;BME280_humidity;BME280_pressure;Samples;Min_cycle;Max_cycle;Signal;HPM_P1;HPM_P2
2022/09/26 00:01:59;;;;;;;5.40;3.10;;;;;;;13.43;77.12;94352.34;5053863;28;20291;-62
2022/09/26 00:04:27;;;;;;;5.60;3.13;;;;;;;13.41;77.60;94374.69;5053729;28;20220;-61
2022/09/26 00:06:55;;;;;;;5.15;3.28;;;;;;;13.27;78.69;94370.16;5053771;28;20194;-61
2022/09/26 00:09:22;;;;;;;6.30;3.95;;;;;;;13.56;77.10;94400.44;5053596;28;20244;-62
2022/09/26 00:11:48;;;;;;;4.15;3.20;;;;;;;13.49;77.41;94389.25;5052353;28;20263;-62
2022/09/26 00:14:18;;;;;;;4.97;3.63;;;;;;;13.63;76.38;94410.84;5053966;28;20666;-63
2022/09/26 00:16:43;;;;;;;4.07;3.17;;;;;;;13.65;75.54;94407.19;5053645;28;20204;-61
2022/09/26 00:19:09;;;;;;;5.27;3.23;;;;;;;13.55;77.85;94383.53;5053889;28;20217;-61
2022/09/26 00:21:35;;;;;;;3.88;3.22;;;;;;;13.33;78.83;94367.00;5052270;28;20651;-62
2022/09/26 00:24:01;;;;;;;5.53;3.20;;;;;;;13.67;78.15;94384.84;5053263;28;20201;-60
2022/09/26 00:26:29;;;;;;;5.13;3.35;;;;;;;13.81;77.17;94396.22;5052177;28;20194;-61
2022/09/26 00:28:55;;;;;;;7.40;3.60;;;;;;;13.67;78.13;94379.75;5053420;28;20209;-61
2022/09/26 00:31:32;;;;;;;4.78;2.97;;;;;;;13.54;78.65;94368.34;5053484;28;20184;-63
2022/09/26 00:33:58;;;;;;;3.53;3.22;;;;;;;13.79;78.18;94396.38;5053432;28;20213;-64
2022/09/26 00:36:24;;;;;;;4.00;2.95;;;;;;;13.78;77.27;94409.28;5053537;28;20655;-63
2022/09/26 00:38:49;;;;;;;5.20;3.28;;;;;;;13.72;77.64;94402.25;5053600;28;20229;-64
2022/09/26 00:41:15;;;;;;;6.00;3.00;;;;;;;13.91;78.21;94389.22;5051927;28;20180;-63
2022/09/26 00:43:50;;;;;;;4.50;3.05;;;;;;;13.98;76.80;94402.94;5052110;28;20205;-62
2022/09/26 00:46:36;;;;;;;4.33;3.17;;;;;;;13.96;76.40;94417.66;5053108;28;20263;-62
2022/09/26 00:49:02;;;;;;;3.37;2.87;;;;;;;13.91;76.41;94412.22;5051688;28;20246;-61
2022/09/26 00:51:28;;;;;;;4.50;3.10;;;;;;;13.92;76.47;94413.81;5053164;28;20216;-62
2022/09/26 00:53:54;;;;;;;4.15;3.00;;;;;;;13.88;76.88;94400.53;5053121;28;20295;-63
2022/09/26 00:56:25;;;;;;;5.93;3.28;;;;;;;13.81;77.59;94380.88;5053003;28;20212;-62
2022/09/26 00:58:59;;;;;;;6.22;3.45;;;;;;;13.84;77.81;94383.91;5053283;28;20213;-61
2022/09/26 01:01:25;;;;;;;4.57;2.88;;;;;;;13.78;77.97;94368.41;5053122;28;20193;-62
2022/09/26 01:03:51;;;;;;;5.00;3.00;;;;;;;13.88;77.91;94392.06;5052412;28;20220;-63
2022/09/26 01:06:18;;;;;;;6.85;3.67;;;;;;;13.66;79.19;94369.66;5052781;28;20182;-64
2022/09/26 01:09:11;;;;;;;2.93;2.40;;;;;;;13.72;78.89;94362.19;5051563;28;20224;-61
2022/09/26 01:11:39;;;;;;;5.80;3.00;;;;;;;13.60;79.57;94337.06;5050306;28;20288;-62
2022/09/26 01:14:24;;;;;;;5.87;2.80;;;;;;;13.28;81.96;94325.00;5052706;28;20217;-62
2022/09/26 01:16:50;;;;;;;4.10;3.30;;;;;;;13.28;82.05;94325.81;5051391;28;20255;-60
2022/09/26 01:19:31;;;;;;;4.20;2.80;;;;;;;13.56;81.25;94340.88;5052481;28;20601;-63
2022/09/26 01:22:03;;;;;;;3.08;2.85;;;;;;;13.71;80.90;94352.13;5051345;28;20189;-63
2022/09/26 01:24:31;;;;;;;4.20;2.90;;;;;;;13.74;80.35;94360.25;5053157;28;20209;-61
2022/09/26 01:27:38;;;;;;;2.90;2.60;;;;;;;13.68;80.80;94352.41;5052693;28;21002;-60
2022/09/26 01:30:09;;;;;;;3.20;2.92;;;;;;;13.94;80.46;94365.88;5023963;28;20233;-61
2022/09/26 01:32:49;;;;;;;3.57;2.87;;;;;;;13.86;81.21;94346.25;5051262;28;20189;-61
2022/09/26 01:35:37;;;;;;;5.10;3.00;;;;;;;13.88;80.75;94346.88;5052465;28;20205;-62
2022/09/26 01:38:14;;;;;;;3.30;3.03;;;;;;;14.07;79.93;94366.25;5052378;28;20190;-63
2022/09/26 01:40:49;;;;;;;4.28;3.20;;;;;;;14.02;80.14;94374.38;5052221;28;20753;-62
2022/09/26 01:43:25;;;;;;;2.75;2.55;;;;;;;14.10;79.62;94383.81;5052528;28;20193;-63
2022/09/26 01:46:00;;;;;;;4.72;3.20;;;;;;;14.00;80.04;94385.72;5052148;28;20181;-61
2022/09/26 01:48:50;;;;;;;4.45;2.95;;;;;;;13.91;81.28;94354.25;5052369;28;20187;-65
2022/09/26 01:51:20;;;;;;;3.40;2.97;;;;;;;14.02;80.35;94378.69;5050881;28;20197;-62
2022/09/26 01:54:03;;;;;;;6.45;3.72;;;;;;;14.22;78.07;94408.91;5050935;28;20216;-61
2022/09/26 01:56:35;;;;;;;4.65;3.47;;;;;;;14.05;79.08;94391.16;5052522;28;20189;-64
2022/09/26 01:59:08;;;;;;;8.07;3.38;;;;;;;13.86;80.46;94353.91;5064306;22;20224;-61
2022/09/26 02:01:41;;;;;;;4.15;2.97;;;;;;;14.12;79.07;94372.47;5072135;28;20216;-64
2022/09/26 02:04:15;;;;;;;5.57;3.70;;;;;;;14.00;79.08;94371.19;5072069;28;20200;-64
2022/09/26 02:07:03;;;;;;;4.22;3.22;;;;;;;14.04;78.63;94390.34;5071950;28;20638;-62
2022/09/26 02:09:37;;;;;;;4.28;3.20;;;;;;;13.97;79.23;94358.72;5072418;28;20357;-63
2022/09/26 02:12:08;;;;;;;3.53;3.22;;;;;;;13.99;79.87;94358.56;5071771;28;20185;-63
2022/09/26 02:14:36;;;;;;;3.92;2.63;;;;;;;14.08;80.09;94344.81;5071939;28;20703;-61
2022/09/26 02:17:11;;;;;;;3.90;3.22;;;;;;;14.16;79.79;94352.50;5070691;28;20173;-61
2022/09/26 02:19:50;;;;;;;3.63;3.08;;;;;;;13.97;81.43;94332.38;5071923;28;20922;-61
2022/09/26 02:22:15;;;;;;;4.57;4.00;;;;;;;13.79;82.06;94313.81;5071858;28;20285;-62
2022/09/26 02:24:41;;;;;;;7.88;4.32;;;;;;;13.85;81.22;94339.53;5070649;28;20246;-63
2022/09/26 02:27:06;;;;;;;5.57;3.78;;;;;;;13.89;81.22;94343.38;5071593;28;20181;-60
2022/09/26 02:29:33;;;;;;;5.10;4.30;;;;;;;13.91;81.54;94330.44;5071492;28;20227;-63
2022/09/26 02:32:04;;;;;;;7.43;3.97;;;;;;;14.02;80.89;94338.59;5086978;28;20655;-61
2022/09/26 02:34:30;;;;;;;4.50;3.92;;;;;;;14.11;81.38;94321.50;5071474;28;20216;-62
2022/09/26 02:36:56;;;;;;;7.35;3.95;;;;;;;14.11;81.11;94318.97;5078997;22;20610;-60
2022/09/26 02:39:23;;;;;;;6.82;4.20;;;;;;;14.40;80.03;94339.78;5071543;28;20213;-62
2022/09/26 02:42:02;;;;;;;5.25;4.10;;;;;;;14.37;79.17;94337.53;5069928;28;20197;-62
2022/09/26 02:44:49;;;;;;;5.18;3.83;;;;;;;14.20;80.44;94315.47;5071525;28;20224;-63
2022/09/26 02:47:14;;;;;;;5.10;3.72;;;;;;;14.07;82.40;94280.16;5071152;28;20264;-62
2022/09/26 02:50:18;;;;;;;6.68;3.50;;;;;;;13.91;84.23;94266.56;5071292;28;20307;-61
2022/09/26 02:53:00;;;;;;;7.40;4.43;;;;;;;14.02;83.70;94277.25;5055111;28;20625;-62
2022/09/26 02:55:44;;;;;;;6.30;3.90;;;;;;;14.07;83.42;94280.16;5069922;28;20220;-62
2022/09/26 02:58:34;;;;;;;4.50;4.05;;;;;;;14.07;82.81;94307.44;5071280;28;20200;-62
2022/09/26 03:01:10;;;;;;;4.22;3.83;;;;;;;14.13;83.03;94302.50;5071343;28;20254;-63
2022/09/26 03:03:46;;;;;;;5.50;3.92;;;;;;;14.18;83.37;94296.94;5071159;28;20211;-62
2022/09/26 03:06:16;;;;;;;4.22;3.50;;;;;;;14.49;81.16;94331.13;5071114;28;20681;-61
2022/09/26 03:08:46;;;;;;;5.53;3.75;;;;;;;14.35;81.87;94308.75;5069668;28;20212;-62
2022/09/26 03:11:17;;;;;;;7.10;4.20;;;;;;;14.42;81.50;94311.47;5071336;28;20209;-64
2022/09/26 03:13:44;;;;;;;8.98;4.50;;;;;;;14.29;82.34;94301.72;5069528;28;20209;-63
2022/09/26 03:16:11;;;;;;;8.38;4.20;;;;;;;14.09;83.14;94278.22;5071349;28;20216;-61
2022/09/26 03:19:04;;;;;;;6.13;4.68;;;;;;;14.12;82.87;94283.00;5070654;28;20191;-61
2022/09/26 03:21:31;;;;;;;7.90;4.85;;;;;;;14.10;82.26;94307.13;5066313;28;20708;-62
2022/09/26 03:23:56;;;;;;;8.55;4.60;;;;;;;13.95;82.83;94289.09;5070141;28;20258;-62
2022/09/26 03:26:25;;;;;;;5.17;4.47;;;;;;;13.64;85.01;94247.22;5070594;28;20188;-63
2022/09/26 03:28:51;;;;;;;8.77;5.18;;;;;;;13.81;84.18;94278.69;5073651;28;20203;-61
2022/09/26 03:31:21;;;;;;;7.10;4.78;;;;;;;13.69;84.62;94267.19;5074256;28;20591;-62
2022/09/26 03:33:47;;;;;;;9.60;4.83;;;;;;;13.82;85.09;94257.28;5074247;28;20201;-63
2022/09/26 03:36:13;;;;;;;8.02;4.60;;;;;;;13.93;83.17;94273.13;5073046;28;20201;-62
2022/09/26 03:38:38;;;;;;;7.07;4.75;;;;;;;13.75;83.67;94256.31;5074215;28;20207;-62
2022/09/26 03:41:04;;;;;;;10.20;5.22;;;;;;;13.59;84.68;94249.47;5074055;28;20193;-65
2022/09/26 03:43:30;;;;;;;6.35;4.72;;;;;;;13.67;85.36;94233.34;5073832;28;20600;-61
2022/09/26 03:45:55;;;;;;;6.53;4.90;;;;;;;13.84;84.19;94255.34;5072839;28;20658;-62
2022/09/26 03:48:21;;;;;;;13.05;5.50;;;;;;;13.68;84.38;94240.03;5074207;28;20181;-62
2022/09/26 03:50:46;;;;;;;5.18;4.22;;;;;;;13.60;85.00;94227.25;5073983;28;20295;-61
2022/09/26 03:53:12;;;;;;;6.90;4.85;;;;;;;13.22;87.93;94201.34;5072824;28;20180;-64
2022/09/26 03:55:38;;;;;;;9.27;5.32;;;;;;;13.13;89.64;94222.69;5072512;28;20722;-62
2022/09/26 03:58:03;;;;;;;6.90;4.70;;;;;;;13.52;88.11;94245.13;5073955;28;20234;-61
2022/09/26 04:00:29;;;;;;;8.07;4.80;;;;;;;13.30;88.82;94234.56;5074189;28;20559;-64
2022/09/26 04:02:54;;;;;;;11.57;6.22;;;;;;;13.06;89.83;94233.69;5073869;28;20181;-61
2022/09/26 04:05:19;;;;;;;8.10;4.60;;;;;;;13.27;89.04;94232.31;5081388;22;20228;-61
2022/09/26 04:07:46;;;;;;;10.23;5.50;;;;;;;13.39;88.47;94230.28;5073955;28;20176;-61
2022/09/26 04:10:12;;;;;;;6.83;4.53;;;;;;;13.41;89.01;94225.81;5073426;28;20221;-61
2022/09/26 04:12:38;;;;;;;10.98;4.53;;;;;;;13.52;88.34;94255.31;5073690;28;20189;-61
2022/09/26 04:15:05;;;;;;;6.55;4.95;;;;;;;13.62;87.31;94264.44;5073891;28;20320;-61
2022/09/26 04:17:31;;;;;;;8.35;4.55;;;;;;;13.71;87.18;94266.06;5073752;28;20202;-63
2022/09/26 04:19:56;;;;;;;10.10;5.22;;;;;;;13.79;87.23;94265.28;5074013;28;20824;-63
2022/09/26 04:22:24;;;;;;;8.10;5.03;;;;;;;13.85;86.78;94267.19;5073442;28;20177;-64
2022/09/26 04:24:50;;;;;;;7.90;6.50;;;;;;;13.82;87.09;94265.75;5073550;28;20217;-62
2022/09/26 04:27:17;;;;;;;8.63;5.85;;;;;;;13.57;88.09;94261.59;5073669;28;20185;-61
2022/09/26 04:29:43;;;;;;;10.35;5.47;;;;;;;13.36;89.81;94240.78;5073422;28;20225;-61
2022/09/26 04:32:10;;;;;;;10.10;5.57;;;;;;;13.45;88.98;94248.28;5073379;28;20676;-62
2022/09/26 04:34:37;;;;;;;6.65;5.38;;;;;;;13.55;88.96;94262.69;5073342;28;20212;-61
2022/09/26 04:37:03;;;;;;;10.30;5.55;;;;;;;13.79;94.38;94283.16;5073266;28;20238;-61
2022/09/26 04:39:29;;;;;;;10.10;5.23;;;;;;;13.80;90.67;94284.75;5072449;28;20251;-60
2022/09/26 04:41:54;;;;;;;9.27;5.85;;;;;;;14.24;90.66;94311.63;5073126;28;20654;-62
2022/09/26 04:44:20;;;;;;;7.28;4.85;;;;;;;14.15;87.19;94348.34;5073197;28;20208;-61
2022/09/26 04:46:46;;;;;;;10.90;5.90;;;;;;;14.08;86.72;94337.16;5073308;28;20188;-62
2022/09/26 04:49:12;;;;;;;6.82;4.70;;;;;;;14.35;84.21;94359.91;5071636;28;20244;-61
2022/09/26 04:51:38;;;;;;;8.88;5.53;;;;;;;14.36;83.52;94366.63;5073089;28;20659;-63
2022/09/26 04:54:03;;;;;;;6.68;4.40;;;;;;;14.23;84.89;94330.47;5072796;28;20209;-62
2022/09/26 04:56:29;;;;;;;6.60;5.43;;;;;;;13.94;87.43;94284.13;5071387;28;20188;-62
2022/09/26 04:58:57;;;;;;;7.68;6.47;;;;;;;13.88;87.92;94274.53;5073160;28;20275;-64
2022/09/26 05:01:23;;;;;;;14.00;6.50;;;;;;;14.15;85.92;94315.94;5073043;28;20662;-62
2022/09/26 05:03:48;;;;;;;9.88;6.30;;;;;;;14.07;85.85;94321.03;5072988;28;20215;-63
2022/09/26 05:06:16;;;;;;;13.13;6.45;;;;;;;14.10;85.70;94325.81;5088423;28;20385;-63
2022/09/26 05:08:47;;;;;;;7.47;5.67;;;;;;;14.10;84.46;94348.81;5072957;28;20213;-62
2022/09/26 05:11:14;;;;;;;6.22;4.40;;;;;;;14.29;84.07;94342.63;5072604;28;20300;-63
2022/09/26 05:13:40;;;;;;;8.90;4.97;;;;;;;14.36;83.07;94350.47;5071217;28;20209;-63
2022/09/26 05:16:09;;;;;;;10.27;5.18;;;;;;;14.30;84.00;94337.34;5072298;28;20188;-62
2022/09/26 05:18:38;;;;;;;11.60;6.10;;;;;;;14.42;84.60;94325.06;5072514;28;20185;-62
2022/09/26 05:21:06;;;;;;;7.22;5.43;;;;;;;14.35;82.62;94334.31;5070954;28;20201;-62
2022/09/26 05:26:20;;;;;;;12.55;6.18;;;;;;;14.08;85.21;94302.19;5072677;28;20568;-62
2022/09/26 05:28:49;;;;;;;10.00;6.68;;;;;;;14.43;83.32;94320.72;5086831;28;20682;-63
2022/09/26 05:31:15;;;;;;;11.40;6.30;;;;;;;14.39;84.58;94304.13;5069932;28;20208;-63
2022/09/26 05:33:41;;;;;;;12.32;6.38;;;;;;;14.49;84.35;94326.00;5071092;28;20239;-63
2022/09/26 05:36:07;;;;;;;11.77;5.75;;;;;;;14.52;84.86;94305.25;5072044;28;20185;-62
2022/09/26 05:38:33;;;;;;;10.33;7.10;;;;;;;14.62;83.80;94313.53;5072200;28;20576;-62
2022/09/26 05:40:59;;;;;;;11.80;7.15;;;;;;;14.65;83.38;94309.84;5072098;28;20191;-62
2022/09/26 05:43:27;;;;;;;10.70;6.53;;;;;;;14.77;84.01;94309.34;5070815;28;20566;-62
2022/09/26 05:45:58;;;;;;;7.55;5.88;;;;;;;15.14;82.86;94322.34;5072108;28;20189;-62
2022/09/26 05:48:24;;;;;;;10.52;6.85;;;;;;;15.06;82.72;94324.13;5070892;28;20223;-61
2022/09/26 05:50:50;;;;;;;11.35;6.70;;;;;;;14.70;85.84;94277.69;5071663;28;20205;-62
2022/09/26 05:53:15;;;;;;;13.60;8.05;;;;;;;14.51;85.97;94277.25;5071984;28;20268;-62
2022/09/26 05:55:41;;;;;;;11.18;6.38;;;;;;;14.67;85.50;94298.47;5071784;28;20602;-62
2022/09/26 05:58:08;;;;;;;16.25;7.63;;;;;;;14.78;84.99;94307.56;5071885;28;20180;-63
2022/09/26 06:00:35;;;;;;;11.40;7.78;;;;;;;14.86;83.64;94330.59;5071825;28;20207;-62
2022/09/26 06:03:02;;;;;;;12.98;7.45;;;;;;;14.87;83.85;94321.94;5071877;28;20704;-62
2022/09/26 06:05:29;;;;;;;14.07;8.23;;;;;;;14.90;84.38;94317.31;5070388;28;20273;-62
2022/09/26 06:07:54;;;;;;;12.68;7.90;;;;;;;14.86;83.44;94331.41;5071565;28;20193;-62
2022/09/26 06:10:20;;;;;;;28.23;8.90;;;;;;;14.85;82.90;94341.78;5071428;28;20772;-62
2022/09/26 06:12:46;;;;;;;14.35;8.07;;;;;;;14.77;82.95;94334.91;5071628;28;20226;-62
2022/09/26 06:15:13;;;;;;;19.70;8.10;;;;;;;14.77;82.76;94340.03;5071460;28;20247;-62
2022/09/26 06:17:39;;;;;;;13.05;8.75;;;;;;;14.97;82.07;94359.19;5087260;28;20207;-63
2022/09/26 06:20:05;;;;;;;15.68;8.25;;;;;;;15.13;81.17;94382.19;5087140;28;20221;-63
2022/09/26 06:22:40;;;;;;;21.42;9.40;;;;;;;15.06;79.84;94406.88;5071586;28;20184;-63
2022/09/26 06:25:10;;;;;;;12.30;8.82;;;;;;;15.26;79.69;94396.25;5071701;28;20250;-61
2022/09/26 06:27:37;;;;;;;22.10;13.57;;;;;;;15.37;78.77;94406.16;5071429;28;20300;-63
2022/09/26 06:30:09;;;;;;;19.02;10.00;;;;;;;15.11;80.29;94370.50;5071926;28;20225;-62
2022/09/26 06:32:38;;;;;;;23.10;9.77;;;;;;;15.35;80.09;94385.03;5071362;28;20173;-62
2022/09/26 06:35:04;;;;;;;20.65;9.20;;;;;;;15.34;79.04;94401.34;5070300;28;20641;-62
2022/09/26 06:37:29;;;;;;;13.23;9.38;;;;;;;15.45;78.49;94413.84;5071430;28;20232;-62
2022/09/26 06:39:55;;;;;;;14.77;8.90;;;;;;;15.73;76.98;94428.66;5070035;28;20704;-63
2022/09/26 06:42:20;;;;;;;19.58;8.93;;;;;;;15.53;78.38;94398.44;5086714;28;20180;-63
2022/09/26 06:44:46;;;;;;;17.65;9.10;;;;;;;15.43;79.27;94383.25;5071352;28;20265;-61
2022/09/26 06:47:12;;;;;;;20.50;8.30;;;;;;;15.69;76.03;94429.13;5071139;28;20582;-64
2022/09/26 06:49:37;;;;;;;15.00;9.07;;;;;;;15.62;76.37;94417.94;5071066;28;20257;-62
2022/09/26 06:52:03;;;;;;;17.08;7.97;;;;;;;15.58;75.33;94442.28;5071108;28;20211;-62
2022/09/26 06:54:29;;;;;;;13.13;7.75;;;;;;;15.39;75.33;94437.53;5071334;28;20216;-63
2022/09/26 06:56:55;;;;;;;10.98;6.68;;;;;;;15.45;74.80;94450.53;5069847;28;20189;-62
2022/09/26 06:59:22;;;;;;;11.60;7.25;;;;;;;15.75;72.70;94487.41;5071269;28;20221;-62
2022/09/26 07:01:48;;;;;;;8.13;4.20;;;;;;;15.96;68.27;94591.03;5069177;28;20196;-62
2022/09/26 07:04:14;;;;;;;8.52;4.85;;;;;;;15.95;68.61;94558.66;5071062;28;20216;-62
2022/09/26 07:06:40;;;;;;;5.90;4.22;;;;;;;16.03;68.64;94565.53;5069547;28;20188;-62
2022/09/26 07:09:06;;;;;;;7.32;4.30;;;;;;;16.21;66.38;94608.91;5070659;28;20215;-62
2022/09/26 07:11:32;;;;;;;3.95;3.13;;;;;;;16.32;65.96;94616.25;5070817;28;20180;-64
2022/09/26 07:14:00;;;;;;;9.43;3.92;;;;;;;16.53;66.15;94607.06;5070919;28;20209;-64
2022/09/26 07:16:26;;;;;;;8.25;3.72;;;;;;;16.67;64.88;94619.19;5070795;28;20254;-63
2022/09/26 07:18:52;;;;;;;9.25;4.15;;;;;;;16.88;64.04;94625.50;5069476;28;20673;-63
2022/09/26 07:21:17;;;;;;;8.98;4.93;;;;;;;16.98;63.59;94634.63;5070601;28;20187;-63
2022/09/26 07:23:43;;;;;;;12.15;4.25;;;;;;;16.89;63.61;94622.78;5070698;28;20204;-61
2022/09/26 07:26:08;;;;;;;6.80;4.00;;;;;;;17.10;63.99;94609.34;5069151;28;20189;-62
2022/09/26 07:28:34;;;;;;;8.25;3.45;;;;;;;17.41;63.90;94607.53;5070367;28;20188;-62
2022/09/26 07:31:00;;;;;;;11.32;4.15;;;;;;;17.75;61.62;94661.91;5070365;28;20735;-62
2022/09/26 07:33:25;;;;;;;8.05;4.90;;;;;;;17.66;62.19;94631.28;5069038;28;20197;-62
2022/09/26 07:35:51;;;;;;;9.23;4.43;;;;;;;17.82;62.28;94644.81;5070392;28;20561;-63
2022/09/26 07:38:16;;;;;;;10.10;4.57;;;;;;;17.87;62.48;94623.72;5069117;28;20224;-62
2022/09/26 07:40:42;;;;;;;10.88;4.07;;;;;;;17.89;60.80;94660.34;5069116;28;20686;-63
2022/09/26 07:43:09;;;;;;;6.22;3.53;;;;;;;17.70;60.76;94656.47;5070455;28;20566;-62
2022/09/26 07:51:05;;;;;;;9.18;4.15;;;;;;;17.93;61.65;94621.25;5070506;28;20220;-62
2022/09/26 07:53:31;;;;;;;5.47;4.03;;;;;;;17.93;62.32;94590.38;5070264;28;20600;-64
2022/09/26 07:56:09;;;;;;;8.70;4.15;;;;;;;17.92;62.13;94596.47;5068956;28;20196;-63
2022/09/26 07:58:45;;;;;;;13.43;4.63;;;;;;;18.07;62.33;94581.88;5070152;28;20642;-63
2022/09/26 08:01:13;;;;;;;8.88;4.00;;;;;;;18.09;62.63;94576.53;5070258;28;20204;-63
2022/09/26 08:03:43;;;;;;;9.15;4.03;;;;;;;18.11;62.04;94577.97;5070245;28;20208;-63
2022/09/26 08:06:09;;;;;;;11.05;4.35;;;;;;;18.44;59.88;94628.13;5070122;28;20185;-62
2022/09/26 08:08:35;;;;;;;9.05;4.18;;;;;;;18.72;60.00;94618.00;5070272;28;20184;-62
2022/09/26 08:11:01;;;;;;;10.18;4.28;;;;;;;18.87;59.86;94620.53;5070179;28;20213;-65
2022/09/26 08:13:28;;;;;;;7.43;4.53;;;;;;;19.25;57.28;94691.53;5071115;28;20618;-63
2022/09/26 08:15:55;;;;;;;5.85;4.40;;;;;;;19.44;57.73;94656.66;5072280;28;20208;-63
2022/09/26 08:18:21;;;;;;;9.60;4.07;;;;;;;19.64;57.62;94639.59;5072102;28;20621;-63
2022/09/26 08:20:46;;;;;;;8.80;4.47;;;;;;;19.70;56.70;94664.66;5073426;28;20184;-64
2022/09/26 08:23:16;;;;;;;9.85;4.80;;;;;;;19.95;55.95;94679.59;5073384;28;20200;-62
2022/09/26 08:25:42;;;;;;;6.22;4.07;;;;;;;19.70;57.02;94646.59;5073283;28;20291;-63
2022/09/26 08:28:11;;;;;;;9.35;3.80;;;;;;;19.84;57.16;94636.19;5073397;28;20184;-63
2022/09/26 08:30:38;;;;;;;8.77;4.30;;;;;;;20.37;54.95;94690.84;5073219;28;20674;-63
2022/09/26 08:33:11;;;;;;;9.07;4.10;;;;;;;20.57;53.18;94722.75;5073623;28;20674;-63
2022/09/26 08:35:40;;;;;;;9.20;3.75;;;;;;;20.85;52.83;94716.56;5073287;28;20281;-63
2022/09/26 08:38:06;;;;;;;6.40;4.30;;;;;;;21.12;51.49;94747.75;5073084;28;20184;-63
2022/09/26 08:40:45;;;;;;;9.18;3.58;;;;;;;21.26;51.50;94726.13;5073015;28;20228;-63
2022/09/26 08:43:28;;;;;;;5.70;3.70;;;;;;;21.41;51.04;94753.47;5073277;28;20226;-62
2022/09/26 08:49:23;;;;;;;8.57;3.38;;;;;;;21.82;49.58;94775.91;5073139;28;20273;-62
2022/09/26 08:51:52;;;;;;;5.07;3.22;;;;;;;22.01;49.19;94768.22;5088471;28;20204;-63
2022/09/26 08:54:26;;;;;;;8.05;3.40;;;;;;;22.44;50.14;94719.41;5073279;28;20204;-63
2022/09/26 08:56:57;;;;;;;6.00;3.42;;;;;;;22.26;48.28;94781.41;5072925;28;20189;-63
2022/09/26 08:59:32;;;;;;;8.05;3.92;;;;;;;22.85;46.48;94848.81;5072861;28;20247;-63
2022/09/26 09:02:04;;;;;;;9.40;3.88;;;;;;;23.30;45.73;94841.00;5073025;28;20215;-63
2022/09/26 09:04:43;;;;;;;8.38;3.80;;;;;;;23.10;45.45;94840.22;5071731;28;20281;-63
2022/09/26 09:07:27;;;;;;;6.05;3.45;;;;;;;23.31;45.12;94855.59;5072788;28;20192;-62
2022/09/26 09:10:00;;;;;;;4.18;3.08;;;;;;;23.14;45.32;94827.66;5073191;28;20311;-63
2022/09/26 09:12:45;;;;;;;4.85;3.33;;;;;;;23.74;44.06;94816.91;5073424;28;20169;-62
2022/09/26 09:15:23;;;;;;;8.35;2.85;;;;;;;23.45;44.69;94757.75;5072720;28;20219;-64
2022/09/26 09:18:33;;;;;;;5.20;3.05;;;;;;;23.79;42.62;94759.19;5072754;28;20188;-62
2022/09/26 09:21:25;;;;;;;7.75;3.70;;;;;;;24.14;42.05;94747.38;5076184;22;20232;-62
2022/09/26 09:24:20;;;;;;;6.85;3.20;;;;;;;24.43;40.42;94772.78;5072768;28;20224;-62
2022/09/26 09:26:57;;;;;;;5.72;2.85;;;;;;;24.84;40.52;94744.47;5071874;28;20243;-63
2022/09/26 09:29:42;;;;;;;4.72;2.60;;;;;;;25.29;40.01;94752.00;5072448;28;20209;-60
2022/09/26 09:32:13;;;;;;;4.43;2.78;;;;;;;25.39;39.83;94737.44;5072598;28;20188;-62
2022/09/26 09:34:42;;;;;;;6.43;3.33;;;;;;;25.26;39.44;94700.34;5073017;28;20251;-65
2022/09/26 09:37:22;;;;;;;8.43;3.45;;;;;;;25.05;39.69;94667.00;5072618;28;20207;-62
2022/09/26 09:39:50;;;;;;;3.28;2.75;;;;;;;25.70;38.96;94679.19;5072345;28;20277;-62
2022/09/26 09:42:18;;;;;;;4.50;3.25;;;;;;;26.03;38.49;94692.53;5072368;28;20238;-61
2022/09/26 09:44:51;;;;;;;5.78;3.03;;;;;;;26.28;38.89;94663.72;5072424;28;20733;-63
2022/09/26 09:47:17;;;;;;;7.60;3.25;;;;;;;25.36;39.42;94643.38;5070846;28;20206;-65
2022/09/26 09:49:46;;;;;;;3.55;2.88;;;;;;;25.17;39.53;94626.97;5072087;28;20634;-65
2022/09/26 09:52:34;;;;;;;8.30;3.28;;;;;;;25.22;40.38;94598.50;5072069;28;20181;-63
2022/09/26 09:55:11;;;;;;;5.18;3.20;;;;;;;25.97;39.52;94620.47;5072965;28;20208;-63
2022/09/26 09:58:08;;;;;;;4.82;3.65;;;;;;;26.60;39.08;94621.38;5070712;28;20552;-64
2022/09/26 10:00:40;;;;;;;3.40;2.70;;;;;;;26.45;38.70;94634.13;5050177;28;20252;-63
2022/09/26 10:03:26;;;;;;;6.65;2.80;;;;;;;25.72;39.03;94602.41;5051830;28;20227;-63
2022/09/26 10:05:58;;;;;;;4.65;2.88;;;;;;;25.03;40.60;94549.34;5051939;28;20189;-63
2022/09/26 10:08:36;;;;;;;6.40;2.70;;;;;;;24.67;40.31;94553.53;5052039;28;20292;-62
2022/09/26 10:11:25;;;;;;;3.95;3.10;;;;;;;24.74;40.46;94536.09;5051706;28;20246;-63
2022/09/26 10:13:52;;;;;;;5.72;3.38;;;;;;;24.26;43.24;94461.66;5033893;28;20213;-62
2022/09/26 10:16:18;;;;;;;13.88;3.50;;;;;;;23.83;44.06;94422.75;5051738;28;20193;-62
2022/09/26 10:19:02;;;;;;;7.75;3.47;;;;;;;23.95;43.78;94447.00;5051752;28;20251;-63
2022/09/26 10:21:47;;;;;;;7.40;3.10;;;;;;;23.66;45.72;94411.34;5033801;28;20219;-62
2022/09/26 10:24:42;;;;;;;8.35;3.38;;;;;;;23.54;45.90;94400.88;5051416;28;20671;-65
2022/09/26 10:27:20;;;;;;;5.40;3.33;;;;;;;23.36;45.61;94406.06;5030942;28;20203;-63
2022/09/26 10:30:13;;;;;;;4.40;2.95;;;;;;;23.00;46.37;94380.00;5051939;28;20224;-62
2022/09/26 10:32:45;;;;;;;4.90;2.88;;;;;;;23.20;45.56;94409.97;5038728;28;20208;-62
2022/09/26 10:35:23;;;;;;;8.40;3.03;;;;;;;23.79;44.96;94427.59;5051513;28;20217;-63
2022/09/26 10:38:05;;;;;;;6.00;3.10;;;;;;;24.11;44.62;94436.84;5050324;28;20189;-63
2022/09/26 10:40:44;;;;;;;7.50;2.85;;;;;;;24.38;45.20;94410.53;5051288;28;20220;-61
2022/09/26 10:43:19;;;;;;;5.18;2.63;;;;;;;24.24;44.64;94420.28;5033171;28;20540;-63
2022/09/26 10:45:47;;;;;;;6.47;2.60;;;;;;;24.13;44.51;94423.63;5033422;28;20193;-63
2022/09/26 10:48:20;;;;;;;5.32;2.22;;;;;;;23.96;44.74;94418.19;5051372;28;20201;-65
2022/09/26 10:50:50;;;;;;;4.32;2.30;;;;;;;23.74;44.80;94395.47;5051158;28;20202;-63
2022/09/26 10:53:21;;;;;;;5.20;1.95;;;;;;;23.74;45.11;94398.88;5051218;28;20207;-63
2022/09/26 10:55:56;;;;;;;5.93;2.40;;;;;;;24.00;44.14;94413.38;5051117;28;20659;-64
2022/09/26 10:58:26;;;;;;;5.88;2.53;;;;;;;24.28;44.85;94402.47;5051146;28;20588;-61
2022/09/26 11:00:53;;;;;;;6.32;2.25;;;;;;;24.59;43.58;94426.44;5050960;28;20186;-64
2022/09/26 11:03:22;;;;;;;4.05;2.25;;;;;;;24.74;43.86;94400.88;5051014;28;20212;-63
2022/09/26 11:05:57;;;;;;;3.40;2.03;;;;;;;24.77;43.85;94407.41;5051204;28;20276;-62
2022/09/26 11:08:32;;;;;;;4.00;2.55;;;;;;;24.98;44.49;94380.88;5018234;28;20198;-62
2022/09/26 11:11:02;;;;;;;5.78;2.72;;;;;;;25.06;45.16;94358.94;5051110;28;20213;-63
2022/09/26 11:13:38;;;;;;;5.28;2.35;;;;;;;25.46;43.71;94409.34;5051082;28;20205;-64
2022/09/26 11:16:08;;;;;;;6.50;2.38;;;;;;;25.77;42.12;94443.66;5033052;28;20196;-64
2022/09/26 11:19:10;;;;;;;3.38;2.22;;;;;;;25.83;41.86;94449.75;5050666;28;20783;-61
2022/09/26 11:21:40;;;;;;;4.10;1.80;;;;;;;26.07;41.74;94438.31;5050668;28;20185;-61
2022/09/26 11:24:24;;;;;;;6.88;2.17;;;;;;;26.28;41.38;94444.72;5050994;28;20678;-63
2022/09/26 11:26:58;;;;;;;4.45;1.88;;;;;;;26.32;40.06;94480.50;5050717;28;20275;-63
2022/09/26 11:29:33;;;;;;;3.92;2.50;;;;;;;26.47;40.75;94465.16;5050675;28;20815;-64
2022/09/26 11:31:59;;;;;;;4.05;2.38;;;;;;;26.11;39.31;94496.75;5032697;28;20196;-64
2022/09/26 11:34:30;;;;;;;5.68;2.53;;;;;;;25.77;40.70;94435.81;5050356;28;20220;-63
2022/09/26 11:36:55;;;;;;;5.93;2.13;;;;;;;25.84;40.78;94435.69;5032923;28;20193;-62
2022/09/26 11:39:29;;;;;;;5.03;2.33;;;;;;;25.78;41.14;94418.38;5032880;28;20274;-62
2022/09/26 11:42:18;;;;;;;2.60;2.38;;;;;;;25.68;40.84;94428.56;5050540;28;20180;-62
2022/09/26 11:44:53;;;;;;;7.18;2.33;;;;;;;25.55;41.07;94408.00;5050893;28;20705;-64
2022/09/26 11:47:35;;;;;;;7.38;2.38;;;;;;;25.41;41.47;94399.59;5050442;28;20196;-61
2022/09/26 11:50:29;;;;;;;3.58;2.28;;;;;;;25.96;42.39;94362.72;5035859;28;20229;-64
2022/09/26 11:53:23;;;;;;;6.53;2.90;;;;;;;26.48;41.68;94383.28;5053780;28;20201;-62
2022/09/26 11:56:20;;;;;;;8.55;2.30;;;;;;;26.76;39.44;94431.28;5035961;28;20186;-63
2022/09/26 11:59:31;;;;;;;4.03;2.38;;;;;;;27.21;38.73;94451.09;5054145;28;20740;-63
2022/09/26 12:02:31;;;;;;;4.53;2.03;;;;;;;27.34;38.16;94463.09;4953841;29;20267;-63
2022/09/26 12:05:23;;;;;;;1.98;1.65;;;;;;;26.90;37.81;94466.50;4953764;29;20224;-63